KHFD/HFD METAR and TAF weather

Enter ICAO airport designator
Station Type Date Time Source
KHFD METAR 2020/01/28 20:53 UTC NOAA

KHFD 282053Z 32008KT 10SM OVC036 03/M05 A2980 RMK AO2 SLP091 T00331050 53009


Station Type Date Time Source
KHFD Decoded METAR 2020/01/28 20:53 UTC NOAA

HARTFORD-BRAINARD AIRPORT, CT, United States (KHFD) 41-44N 072-39W 4M
Jan 28, 2020 - 03:53 PM EST / 2020.01.28 2053 UTC
Wind: from the NW (320 degrees) at 9 MPH (8 KT):0
Visibility: 10 mile(s):0
Sky conditions: overcast
Temperature: 37.9 F (3.3 C)
Dew Point: 23.0 F (-5.0 C)
Relative Humidity: 54%
Pressure (altimeter): 29.8 in. Hg (1009 hPa)
Pressure tendency: 0.03 inches (0.9 hPa) higher than three hours ago
ob: KHFD 282053Z 32008KT 10SM OVC036 03/M05 A2980 RMK AO2 SLP091 T00331050 53009
cycle: 21

Station Type Date Time Source
KHFD TAF UTC NOAA

Error!

Example: see airport list